Weather at Enua Airport

Public forecast

Using degrees Celsius for public forecast. Weather courtesy of forecast.io.

Closest aviation weather report (METAR) to Enua Airport

Closest report is Mauke Airport, 44.8 nm (83.0 km) ESE. Retrieved 2021/10/18 06:00 UTC (16 minutes ago):

NCMK 180600Z AUTO 11001KT //// ////// 23/20 Q1015

Closest aviation forecast (TAF) to Enua Airport

Forecast is more than 12 hours old.

Closest forecast is Aitutaki Airport, 115.5 nm (213.9 km) NW. Retrieved 2018/02/21 16:17 UTC (4 years ago):

TAF NCAI 211519Z 2116/2205 03012KT 9999 -SHRA SCT018 BKN015 BKN100 TEMPO 2116/2205 3000 TSRA BKN015 FEW018CB